Time;durP1;ratioP1;P1;durP2;ratioP2;P2;SDS_P1;SDS_P2;PMS_P1;PMS_P2;Temp;Humidity;BMP_temperature;BMP_pressure;BME280_temperature;BME280_humidity;BME280_pressure;Samples;Min_cycle;Max_cycle;Signal;HPM_P1;HPM_P2
2022/03/17 00:02:19;;;;;;;73.00;40.70;;;;;;;2.12;58.67;101718.89;130295;1268;99056;-74
2022/03/17 00:05:24;;;;;;;70.30;39.90;;;;;;;2.06;58.80;101717.70;130345;1268;99235;-75
2022/03/17 00:08:30;;;;;;;71.50;40.40;;;;;;;2.03;58.69;101722.58;130253;1268;97977;-74
2022/03/17 00:11:35;;;;;;;72.60;39.50;;;;;;;1.98;58.74;101717.17;130252;1268;98000;-74
2022/03/17 00:14:41;;;;;;;68.90;38.10;;;;;;;1.94;58.78;101717.80;130234;1268;99246;-73
2022/03/17 00:17:46;;;;;;;70.30;39.70;;;;;;;1.92;58.82;101717.73;130215;1268;98091;-75
2022/03/17 00:20:52;;;;;;;70.90;39.10;;;;;;;1.91;58.75;101714.09;130328;1268;98657;-75
2022/03/17 00:23:57;;;;;;;68.50;38.60;;;;;;;1.90;58.82;101714.67;130299;1268;98643;-74
2022/03/17 00:27:03;;;;;;;71.30;40.20;;;;;;;1.88;58.91;101720.38;130333;1268;98701;-73
2022/03/17 00:30:11;;;;;;;71.30;39.80;;;;;;;1.87;58.97;101721.98;130331;1268;98060;-76
2022/03/17 00:33:17;;;;;;;73.50;40.20;;;;;;;1.83;58.95;101727.77;130265;1268;99245;-77
2022/03/17 00:36:23;;;;;;;67.10;38.70;;;;;;;1.79;58.97;101727.56;130288;1268;99260;-77
2022/03/17 00:39:29;;;;;;;69.40;38.70;;;;;;;1.74;59.00;101727.92;130216;1268;99175;-76
2022/03/17 00:42:36;;;;;;;65.80;38.50;;;;;;;1.69;58.98;101728.45;130305;1268;99092;-77
2022/03/17 00:45:43;;;;;;;68.90;38.60;;;;;;;1.65;59.03;101730.20;130271;1268;98997;-77
2022/03/17 00:48:49;;;;;;;72.60;38.10;;;;;;;1.63;59.03;101729.42;130280;1268;99058;-77
2022/03/17 00:51:54;;;;;;;67.60;38.30;;;;;;;1.59;58.97;101730.96;130249;1268;99229;-77
2022/03/17 00:54:59;;;;;;;71.60;39.50;;;;;;;1.55;58.98;101740.94;130256;1268;97963;-77
2022/03/17 00:58:05;;;;;;;70.80;38.50;;;;;;;1.51;59.04;101739.52;130293;1268;98073;-77
2022/03/17 01:01:11;;;;;;;70.40;40.20;;;;;;;1.48;59.08;101743.14;130288;1268;97991;-76
2022/03/17 01:04:16;;;;;;;75.70;42.20;;;;;;;1.43;59.11;101738.95;130237;1268;98651;-77
2022/03/17 01:07:22;;;;;;;68.20;39.30;;;;;;;1.40;59.16;101741.52;130289;1268;99242;-77
2022/03/17 01:10:27;;;;;;;68.30;38.80;;;;;;;1.36;59.25;101742.01;130294;1268;98031;-76
2022/03/17 01:13:33;;;;;;;75.70;40.30;;;;;;;1.32;59.27;101748.27;130256;1268;98718;-78
2022/03/17 01:16:38;;;;;;;68.70;38.90;;;;;;;1.29;59.17;101752.59;130364;1268;99177;-78
2022/03/17 01:19:44;;;;;;;71.50;39.00;;;;;;;1.26;59.21;101755.18;130377;1267;99147;-77
2022/03/17 01:22:49;;;;;;;70.30;38.60;;;;;;;1.24;59.27;101759.11;130315;1268;99177;-77
2022/03/17 01:25:55;;;;;;;72.80;39.60;;;;;;;1.23;59.25;101758.61;130276;1268;98059;-78
2022/03/17 01:29:00;;;;;;;72.60;40.70;;;;;;;1.24;59.44;101755.96;130276;1268;98056;-78
2022/03/17 01:32:07;;;;;;;77.20;39.80;;;;;;;1.26;59.33;101760.44;130250;1268;97955;-75
2022/03/17 01:35:13;;;;;;;75.50;41.50;;;;;;;1.24;59.24;101755.05;130295;1268;99072;-76
2022/03/17 01:38:18;;;;;;;83.30;44.10;;;;;;;1.20;59.29;101757.50;130312;1268;98014;-75
2022/03/17 01:41:23;;;;;;;80.40;42.90;;;;;;;1.15;59.27;101756.79;130283;1268;98037;-75
2022/03/17 01:44:29;;;;;;;72.80;40.50;;;;;;;1.10;59.37;101755.23;130312;1268;99187;-75
2022/03/17 01:47:36;;;;;;;75.20;40.70;;;;;;;1.07;59.25;101756.04;130266;1268;97987;-75
2022/03/17 01:50:42;;;;;;;73.70;40.40;;;;;;;1.05;59.37;101757.15;130298;1268;98666;-74
2022/03/17 01:53:48;;;;;;;73.50;39.80;;;;;;;1.04;59.32;101758.06;130270;1267;97992;-75
2022/03/17 01:56:55;;;;;;;73.80;40.70;;;;;;;1.02;59.38;101760.08;130263;1268;97977;-76
2022/03/17 02:00:02;;;;;;;110.20;62.40;;;;;;;0.98;59.47;101761.10;130295;1268;98877;-73
2022/03/17 02:03:19;;;;;;;91.50;49.40;;;;;;;0.88;59.60;101763.54;130311;1268;97958;-75
2022/03/17 02:06:24;;;;;;;79.90;44.00;;;;;;;0.84;59.55;101765.61;130333;1268;98027;-75
2022/03/17 02:09:30;;;;;;;75.40;41.50;;;;;;;0.77;59.67;101768.30;130326;1268;98161;-74
2022/03/17 02:16:02;;;;;;;77.20;42.30;;;;;;;0.74;59.63;101770.50;130306;1268;97973;-77
2022/03/17 02:19:07;;;;;;;77.20;41.80;;;;;;;0.73;59.87;101766.50;130307;1268;99171;-76
2022/03/17 02:22:16;;;;;;;86.20;45.90;;;;;;;0.72;59.84;101767.25;130275;1268;97956;-76
2022/03/17 02:25:39;;;;;;;104.70;56.50;;;;;;;0.68;60.08;101766.33;130264;1268;98059;-77
2022/03/17 02:28:45;;;;;;;88.20;48.40;;;;;;;0.61;60.12;101773.20;130312;1268;99280;-76
2022/03/17 02:31:51;;;;;;;106.50;54.00;;;;;;;0.59;60.05;101772.95;130286;1268;99248;-77
2022/03/17 02:34:56;;;;;;;91.20;48.90;;;;;;;0.56;60.12;101776.90;130289;1268;98662;-74
2022/03/17 02:38:04;;;;;;;84.30;44.00;;;;;;;0.52;60.24;101775.44;130292;1268;97989;-75
2022/03/17 02:41:09;;;;;;;80.80;43.50;;;;;;;0.50;60.28;101777.95;130371;1268;98339;-75
2022/03/17 02:44:15;;;;;;;81.10;43.10;;;;;;;0.49;59.97;101781.13;130249;1268;98742;-74
2022/03/17 02:47:21;;;;;;;81.20;42.90;;;;;;;0.50;60.35;101783.38;130243;1268;97975;-73
2022/03/17 02:50:27;;;;;;;85.50;43.70;;;;;;;0.52;60.39;101787.52;130343;1268;98058;-75
2022/03/17 02:53:33;;;;;;;94.90;46.10;;;;;;;0.53;60.54;101790.11;130271;1268;99839;-74
2022/03/17 02:56:38;;;;;;;96.80;46.60;;;;;;;0.51;60.53;101791.92;130265;1268;98314;-74
2022/03/17 02:59:44;;;;;;;82.70;43.40;;;;;;;0.49;60.59;101797.77;130296;1268;99172;-74
2022/03/17 03:02:49;;;;;;;82.00;43.40;;;;;;;0.45;60.48;101799.15;130314;1268;99044;-76
2022/03/17 03:05:54;;;;;;;73.90;40.80;;;;;;;0.43;60.47;101807.44;130267;1268;101412;-76
2022/03/17 03:09:00;;;;;;;77.70;42.20;;;;;;;0.40;60.41;101813.13;130360;1268;98092;-75
2022/03/17 03:12:08;;;;;;;76.20;42.20;;;;;;;0.36;60.26;101822.34;130341;1268;98995;-78
2022/03/17 03:15:15;;;;;;;75.20;40.20;;;;;;;0.33;60.42;101827.36;130688;1268;98723;-80
2022/03/17 03:18:21;;;;;;;81.50;43.90;;;;;;;0.30;60.31;101833.58;130847;1268;97979;-80
2022/03/17 03:21:27;;;;;;;77.90;42.80;;;;;;;0.26;60.33;101844.55;130336;1268;98580;-78
2022/03/17 03:24:33;;;;;;;84.60;44.70;;;;;;;0.24;60.34;101846.54;130380;1267;99138;-78
2022/03/17 03:27:40;;;;;;;76.20;42.10;;;;;;;0.23;60.20;101848.16;130299;1268;99204;-76
2022/03/17 03:30:45;;;;;;;76.30;40.40;;;;;;;0.20;60.12;101847.35;130332;1268;97982;-77
2022/03/17 03:33:50;;;;;;;73.10;40.40;;;;;;;0.17;60.24;101855.13;130252;1268;98085;-77
2022/03/17 03:40:19;;;;;;;77.60;40.70;;;;;;;0.15;60.43;101858.16;130354;1267;99149;-76
2022/03/17 03:43:25;;;;;;;76.40;40.10;;;;;;;0.14;60.60;101862.59;130335;1267;97996;-76
2022/03/17 03:46:30;;;;;;;76.00;41.80;;;;;;;0.12;60.41;101863.36;130389;1267;97981;-77
2022/03/17 03:49:39;;;;;;;82.90;42.90;;;;;;;0.09;60.34;101865.55;130320;1267;98755;-76
2022/03/17 03:52:44;;;;;;;85.40;43.70;;;;;;;0.05;60.53;101863.91;130386;1267;99162;-77
2022/03/17 03:55:50;;;;;;;85.20;43.30;;;;;;;0.01;60.41;101865.27;130362;1267;98015;-78
2022/03/17 03:58:55;;;;;;;86.70;43.80;;;;;;;-0.03;60.50;101863.80;130386;1266;98054;-76
2022/03/17 04:02:03;;;;;;;81.40;42.30;;;;;;;-0.05;60.40;101867.52;130316;1267;99038;-78
2022/03/17 04:05:11;;;;;;;77.30;41.20;;;;;;;-0.07;60.50;101870.58;130352;1267;99190;-80
2022/03/17 04:08:17;;;;;;;74.40;39.00;;;;;;;-0.10;60.27;101872.39;130521;1267;99196;-82
2022/03/17 04:11:22;;;;;;;79.40;40.70;;;;;;;-0.15;60.37;101873.23;130465;1267;98761;-81
2022/03/17 04:14:28;;;;;;;79.60;40.90;;;;;;;-0.17;60.57;101875.92;130429;1267;98657;-80
2022/03/17 04:17:33;;;;;;;78.60;40.00;;;;;;;-0.20;60.69;101878.99;130283;1267;98637;-79
2022/03/17 04:20:38;;;;;;;77.70;41.40;;;;;;;-0.25;60.52;101883.84;130443;1266;97985;-82
2022/03/17 04:23:44;;;;;;;80.10;42.90;;;;;;;-0.30;60.65;101885.73;130304;1267;99068;-80
2022/03/17 04:26:50;;;;;;;79.70;40.80;;;;;;;-0.33;60.45;101886.16;130408;1267;97969;-80
2022/03/17 04:29:55;;;;;;;74.30;39.40;;;;;;;-0.33;60.57;101888.29;130414;1267;98713;-80
2022/03/17 04:33:01;;;;;;;78.80;40.90;;;;;;;-0.35;60.50;101887.65;130315;1267;99191;-79
2022/03/17 04:36:10;;;;;;;76.20;38.90;;;;;;;-0.39;60.49;101892.29;130392;1266;98055;-78
2022/03/17 04:39:15;;;;;;;76.50;38.90;;;;;;;-0.42;60.65;101894.11;130311;1267;98043;-83
2022/03/17 04:42:21;;;;;;;72.90;38.10;;;;;;;-0.46;60.39;101901.90;130437;1267;97980;-79
2022/03/17 04:45:27;;;;;;;71.80;37.70;;;;;;;-0.49;60.26;101898.86;130387;1267;97992;-78
2022/03/17 04:48:32;;;;;;;72.50;37.70;;;;;;;-0.51;60.46;101898.20;130322;1267;99159;-78
2022/03/17 04:51:38;;;;;;;73.30;37.60;;;;;;;-0.49;60.69;101897.80;130347;1267;97998;-79
2022/03/17 04:54:43;;;;;;;75.70;39.00;;;;;;;-0.52;60.62;101901.20;130320;1267;97972;-78
2022/03/17 04:57:50;;;;;;;79.50;40.20;;;;;;;-0.54;60.89;101904.58;130326;1267;98666;-77
2022/03/17 05:00:55;;;;;;;73.50;38.80;;;;;;;-0.52;60.86;101909.95;130367;1267;99172;-76
2022/03/17 05:04:01;;;;;;;80.40;41.20;;;;;;;-0.51;60.84;101909.95;130383;1267;99239;-78
2022/03/17 05:07:08;;;;;;;76.30;39.50;;;;;;;-0.50;60.70;101914.25;130344;1266;97981;-77
2022/03/17 05:10:13;;;;;;;72.40;39.20;;;;;;;-0.50;60.74;101918.47;130364;1267;97973;-78
2022/03/17 05:13:19;;;;;;;77.30;41.40;;;;;;;-0.51;60.83;101918.13;130337;1267;98772;-77
2022/03/17 05:16:24;;;;;;;75.10;39.60;;;;;;;-0.48;60.80;101915.08;130351;1266;97982;-76
2022/03/17 05:19:30;;;;;;;73.70;40.30;;;;;;;-0.44;61.01;101919.88;130313;1267;99149;-78
2022/03/17 05:22:36;;;;;;;72.60;39.90;;;;;;;-0.42;61.11;101921.90;130317;1266;97975;-77
2022/03/17 05:25:42;;;;;;;72.60;38.50;;;;;;;-0.39;60.83;101923.04;130328;1267;97952;-77
2022/03/17 05:28:48;;;;;;;74.00;39.10;;;;;;;-0.33;61.09;101920.80;130277;1266;97986;-76
2022/03/17 05:31:53;;;;;;;78.50;41.90;;;;;;;-0.29;60.91;101922.09;130361;1265;98135;-78
2022/03/17 05:34:59;;;;;;;87.70;44.50;;;;;;;-0.23;61.00;101923.15;130309;1267;99064;-78
2022/03/17 05:38:04;;;;;;;86.90;46.20;;;;;;;-0.20;61.05;101922.36;130319;1267;99199;-78
2022/03/17 05:41:10;;;;;;;86.70;45.70;;;;;;;-0.17;61.25;101927.35;130300;1267;97967;-77
2022/03/17 05:44:16;;;;;;;87.80;45.90;;;;;;;-0.12;61.04;101928.25;130592;1266;99058;-79
2022/03/17 05:47:21;;;;;;;89.50;46.90;;;;;;;-0.04;61.41;101931.36;130529;1267;98748;-78
2022/03/17 05:50:33;;;;;;;87.50;44.30;;;;;;;-0.01;61.30;101935.63;130655;1266;98103;-77
2022/03/17 05:53:38;;;;;;;90.20;46.80;;;;;;;0.09;61.60;101941.48;130410;1267;97973;-75
2022/03/17 05:56:44;;;;;;;88.60;45.30;;;;;;;0.21;61.97;101940.45;130548;1267;98870;-76
2022/03/17 05:59:49;;;;;;;77.80;39.30;;;;;;;0.37;61.91;101943.27;130517;1267;99034;-79
2022/03/17 06:02:55;;;;;;;84.10;42.90;;;;;;;0.56;62.02;101947.96;130555;1267;97992;-77
2022/03/17 06:06:01;;;;;;;80.20;42.40;;;;;;;0.76;62.11;101949.61;130383;1267;97959;-77
2022/03/17 06:09:06;;;;;;;86.00;45.00;;;;;;;0.94;62.11;101952.02;130339;1267;98033;-77
2022/03/17 06:12:15;;;;;;;78.40;42.70;;;;;;;1.10;62.41;101952.36;130452;1267;98153;-79
2022/03/17 06:15:21;;;;;;;108.60;57.60;;;;;;;1.25;62.58;101952.25;130367;1267;97990;-77
2022/03/17 06:18:27;;;;;;;142.70;77.10;;;;;;;1.36;62.79;101955.39;130455;1267;98015;-78
2022/03/17 06:21:32;;;;;;;99.80;52.20;;;;;;;1.51;62.94;101959.09;130440;1266;99060;-76
2022/03/17 06:24:38;;;;;;;84.80;46.20;;;;;;;1.64;62.91;101959.53;130404;1267;97998;-75
2022/03/17 06:27:44;;;;;;;83.90;45.50;;;;;;;1.75;63.04;101958.77;130554;1266;99144;-76
2022/03/17 06:30:51;;;;;;;79.30;43.30;;;;;;;1.88;63.25;101968.14;130478;1267;98001;-77
2022/03/17 06:33:56;;;;;;;79.70;42.80;;;;;;;1.97;63.39;101967.64;130376;1267;97986;-78
2022/03/17 06:37:02;;;;;;;84.70;45.10;;;;;;;2.08;63.47;101969.67;130402;1267;98752;-79
2022/03/17 06:40:10;;;;;;;81.20;43.70;;;;;;;2.20;63.53;101970.33;130403;1267;99271;-76
2022/03/17 06:43:16;;;;;;;102.30;48.80;;;;;;;2.30;63.72;101969.04;130453;1267;99171;-76
2022/03/17 06:46:22;;;;;;;103.80;47.20;;;;;;;2.38;63.84;101972.80;130524;1267;97982;-77
2022/03/17 06:49:27;;;;;;;84.60;45.10;;;;;;;2.46;63.81;101979.85;130420;1267;98323;-77
2022/03/17 06:52:33;;;;;;;72.50;40.50;;;;;;;2.58;63.87;101986.10;130268;1267;98755;-78
2022/03/17 06:55:38;;;;;;;74.00;41.00;;;;;;;2.74;63.76;101986.36;130354;1267;97989;-79
2022/03/17 06:58:44;;;;;;;66.70;38.10;;;;;;;2.90;63.93;101989.92;130424;1267;97995;-79
2022/03/17 07:01:49;;;;;;;71.30;38.90;;;;;;;3.06;63.77;101989.11;130376;1267;98082;-75
2022/03/17 07:04:55;;;;;;;70.60;41.70;;;;;;;3.25;63.78;101993.45;130359;1267;99207;-77
2022/03/17 07:08:00;;;;;;;69.20;39.00;;;;;;;3.41;63.82;101997.36;130400;1267;99045;-77
2022/03/17 07:11:06;;;;;;;65.90;40.10;;;;;;;3.52;63.76;101993.91;130364;1266;99179;-77
2022/03/17 07:14:11;;;;;;;64.90;39.70;;;;;;;3.62;63.63;101991.02;130349;1267;99146;-72
2022/03/17 07:17:20;;;;;;;67.00;41.10;;;;;;;3.69;63.58;101995.14;130389;1267;98542;-74
2022/03/17 07:20:26;;;;;;;67.00;41.30;;;;;;;3.72;63.76;102000.80;130404;1267;99083;-73
2022/03/17 07:23:31;;;;;;;60.10;37.80;;;;;;;3.74;63.80;102001.94;130290;1268;98772;-73
2022/03/17 07:26:38;;;;;;;68.10;41.80;;;;;;;3.80;63.85;102001.89;130457;1268;99067;-74
2022/03/17 07:29:44;;;;;;;77.10;43.10;;;;;;;3.86;63.68;102001.08;130318;1268;98406;-74
2022/03/17 07:32:52;;;;;;;68.50;41.60;;;;;;;3.95;63.70;101998.08;130383;1268;97997;-74
2022/03/17 07:35:57;;;;;;;68.70;42.30;;;;;;;4.04;63.51;102002.44;130396;1268;98496;-76
2022/03/17 07:39:04;;;;;;;68.30;39.80;;;;;;;4.14;63.59;102003.03;130291;1268;98757;-76
2022/03/17 07:42:09;;;;;;;68.40;39.50;;;;;;;4.25;63.46;101998.13;130453;1268;98097;-75
2022/03/17 07:45:35;;;;;;;63.60;38.20;;;;;;;4.34;63.09;102002.48;130270;1268;99188;-76
2022/03/17 07:49:01;;;;;;;61.70;37.60;;;;;;;4.44;63.07;102000.77;130058;1268;97992;-74
2022/03/17 07:52:14;;;;;;;62.80;38.40;;;;;;;4.57;63.12;102001.61;130250;1268;99149;-76
2022/03/17 07:55:20;;;;;;;69.70;37.90;;;;;;;4.66;63.06;102000.29;130283;1268;98002;-75
2022/03/17 07:58:26;;;;;;;64.80;38.80;;;;;;;4.75;62.54;102004.30;130306;1268;98051;-74
2022/03/17 08:01:32;;;;;;;58.90;37.20;;;;;;;4.81;62.66;102008.75;130237;1267;97997;-75
2022/03/17 08:04:38;;;;;;;62.50;37.40;;;;;;;4.91;62.47;102012.73;130457;1268;99053;-74
2022/03/17 08:07:44;;;;;;;60.90;36.40;;;;;;;4.99;62.33;102014.61;130263;1268;99094;-75
2022/03/17 08:10:49;;;;;;;55.20;35.90;;;;;;;5.07;62.11;102015.28;130258;1268;98602;-74
2022/03/17 08:13:55;;;;;;;62.10;36.70;;;;;;;5.16;61.99;102016.80;130328;1268;98797;-75
2022/03/17 08:17:01;;;;;;;55.90;35.90;;;;;;;5.25;62.01;102021.48;130268;1268;99226;-77
2022/03/17 08:20:08;;;;;;;58.80;36.50;;;;;;;5.35;61.65;102025.57;130269;1268;98094;-75
2022/03/17 08:23:21;;;;;;;52.90;34.10;;;;;;;5.44;61.61;102034.33;130284;1268;99154;-77
2022/03/17 08:26:27;;;;;;;56.60;34.70;;;;;;;5.53;61.41;102032.95;130366;1268;97961;-75
2022/03/17 08:29:32;;;;;;;53.10;33.50;;;;;;;5.62;61.40;102037.46;130286;1268;99171;-76
2022/03/17 08:32:39;;;;;;;50.40;33.30;;;;;;;5.72;61.18;102039.95;130280;1268;99208;-77
2022/03/17 08:35:45;;;;;;;54.10;34.70;;;;;;;5.83;61.38;102041.36;130259;1268;97982;-77
2022/03/17 08:38:50;;;;;;;49.00;30.60;;;;;;;5.94;61.03;102042.05;130266;1268;99236;-77
2022/03/17 08:41:57;;;;;;;46.80;28.90;;;;;;;6.03;60.41;102044.96;130286;1267;99165;-78
2022/03/17 08:49:18;;;;;;;42.20;27.40;;;;;;;6.12;59.97;102045.53;130256;1268;98000;-77
2022/03/17 08:51:54;;;;;;;49.30;29.40;;;;;;;6.31;59.84;102040.51;130484;1267;97995;-77
2022/03/17 08:55:00;;;;;;;55.90;31.50;;;;;;;6.41;59.87;102038.70;130409;1266;99110;-77
2022/03/17 08:58:06;;;;;;;46.20;27.00;;;;;;;6.51;59.93;102034.85;130577;1266;98002;-78
2022/03/17 09:01:12;;;;;;;41.30;26.40;;;;;;;6.60;59.43;102034.51;130390;1267;98719;-77
2022/03/17 09:04:17;;;;;;;38.40;24.40;;;;;;;6.70;58.80;102036.11;130627;1267;98754;-76
2022/03/17 09:07:23;;;;;;;40.20;27.40;;;;;;;6.78;59.16;102042.89;130320;1268;98752;-76
2022/03/17 09:10:29;;;;;;;44.80;29.40;;;;;;;6.86;58.86;102044.39;130309;1268;98702;-78
2022/03/17 09:13:35;;;;;;;40.90;25.30;;;;;;;6.94;59.07;102043.61;130227;1268;97992;-76
2022/03/17 09:16:41;;;;;;;37.90;25.80;;;;;;;7.01;58.52;102040.22;130239;1268;98045;-77
2022/03/17 09:19:46;;;;;;;39.90;26.30;;;;;;;7.07;58.48;102043.41;130410;1268;99179;-76
2022/03/17 09:22:52;;;;;;;40.60;25.60;;;;;;;7.16;58.52;102045.94;130466;1268;97995;-78
2022/03/17 09:25:58;;;;;;;36.80;23.90;;;;;;;7.25;58.38;102045.75;130276;1268;99209;-76
2022/03/17 09:29:04;;;;;;;35.50;24.30;;;;;;;7.34;58.26;102046.33;130304;1268;98086;-78
2022/03/17 09:32:10;;;;;;;36.30;23.90;;;;;;;7.43;58.33;102054.10;130277;1268;97966;-77
2022/03/17 09:35:16;;;;;;;36.70;25.00;;;;;;;7.52;57.82;102052.77;130355;1268;98056;-75
2022/03/17 09:38:22;;;;;;;34.80;24.10;;;;;;;7.57;57.88;102050.63;130274;1268;97967;-78
2022/03/17 09:41:33;;;;;;;39.20;25.60;;;;;;;7.63;57.70;102051.17;130285;1268;97986;-76
2022/03/17 09:44:39;;;;;;;35.80;23.90;;;;;;;7.70;57.66;102052.93;130329;1268;99188;-76
2022/03/17 09:47:46;;;;;;;38.60;24.90;;;;;;;7.77;57.51;102054.95;130366;1268;97995;-75
2022/03/17 09:50:56;;;;;;;38.80;25.10;;;;;;;7.85;57.40;102057.34;130279;1268;98060;-74
2022/03/17 09:54:02;;;;;;;37.30;24.30;;;;;;;7.91;57.30;102058.08;130285;1268;99037;-77
2022/03/17 09:57:08;;;;;;;34.90;24.10;;;;;;;7.97;57.11;102059.48;130265;1268;98648;-75
2022/03/17 10:00:17;;;;;;;38.20;24.60;;;;;;;8.03;56.82;102064.42;130209;1268;97990;-76
2022/03/17 10:03:25;;;;;;;34.60;25.20;;;;;;;8.08;56.89;102059.15;130384;1268;99065;-76
2022/03/17 10:06:31;;;;;;;34.90;24.10;;;;;;;8.16;56.69;102057.29;130253;1268;98712;-77
2022/03/17 10:09:37;;;;;;;35.60;23.10;;;;;;;8.19;56.73;102054.02;130312;1268;97977;-77
2022/03/17 10:12:42;;;;;;;35.50;24.40;;;;;;;8.24;56.42;102052.73;130293;1268;99037;-76
2022/03/17 10:15:49;;;;;;;38.40;23.80;;;;;;;8.28;56.29;102055.11;130435;1267;98045;-78
2022/03/17 10:19:01;;;;;;;32.90;22.60;;;;;;;8.30;55.99;102050.79;130419;1267;99085;-78
2022/03/17 10:22:12;;;;;;;35.10;22.90;;;;;;;8.34;56.25;102042.88;130428;1267;98038;-75
2022/03/17 10:25:20;;;;;;;40.30;25.10;;;;;;;8.40;56.18;102042.86;130425;1267;97989;-77
2022/03/17 10:28:26;;;;;;;37.70;25.70;;;;;;;8.47;56.02;102042.27;130616;1266;98104;-77
2022/03/17 10:31:32;;;;;;;35.30;23.30;;;;;;;8.51;55.36;102041.86;130491;1267;98585;-80
2022/03/17 10:34:55;;;;;;;35.40;22.80;;;;;;;8.55;55.50;102041.42;130536;1267;99158;-78
2022/03/17 10:38:11;;;;;;;36.10;23.80;;;;;;;8.59;54.90;102044.90;130633;1267;99149;-78
2022/03/17 10:41:17;;;;;;;34.40;23.30;;;;;;;8.60;55.08;102042.67;130541;1267;98056;-76
2022/03/17 10:44:22;;;;;;;33.00;23.00;;;;;;;8.63;54.88;102043.19;130439;1267;98049;-77
2022/03/17 10:47:30;;;;;;;33.90;22.80;;;;;;;8.66;54.28;102037.73;130511;1267;99167;-79
2022/03/17 10:50:42;;;;;;;30.50;20.20;;;;;;;8.68;53.19;102038.83;130533;1267;97961;-78
2022/03/17 10:54:03;;;;;;;27.70;19.10;;;;;;;8.71;53.61;102039.53;130419;1267;97986;-77
2022/03/17 10:57:12;;;;;;;33.20;22.50;;;;;;;8.79;53.37;102040.97;130419;1266;99146;-77
2022/03/17 11:00:26;;;;;;;29.00;18.90;;;;;;;8.85;53.71;102039.00;130476;1267;97998;-76
2022/03/17 11:03:32;;;;;;;25.30;18.10;;;;;;;8.88;53.16;102039.86;130455;1267;98073;-78
2022/03/17 11:06:38;;;;;;;26.50;17.20;;;;;;;8.89;53.01;102037.84;130417;1267;97966;-76
2022/03/17 11:09:46;;;;;;;26.40;18.60;;;;;;;8.95;53.27;102041.71;130440;1267;98092;-77
2022/03/17 11:12:51;;;;;;;28.90;18.80;;;;;;;9.03;53.29;102040.66;130385;1267;98582;-83
2022/03/17 11:16:04;;;;;;;25.20;17.50;;;;;;;9.15;53.38;102036.89;130543;1267;98029;-84
2022/03/17 11:19:12;;;;;;;26.90;18.80;;;;;;;9.31;53.34;102039.59;130550;1267;97964;-82
2022/03/17 11:22:22;;;;;;;24.80;17.70;;;;;;;9.43;52.38;102045.49;130482;1267;99148;-82
2022/03/17 11:25:30;;;;;;;27.10;18.20;;;;;;;9.57;52.65;102042.68;130471;1267;99189;-79
2022/03/17 11:28:39;;;;;;;25.70;18.00;;;;;;;9.77;52.27;102048.03;130460;1267;97983;-83
2022/03/17 11:31:59;;;;;;;25.50;18.60;;;;;;;9.97;51.96;102050.77;130527;1267;98374;-80
2022/03/17 11:35:17;;;;;;;28.90;19.20;;;;;;;10.05;51.63;102052.19;130412;1267;99209;-82
2022/03/17 11:38:27;;;;;;;28.00;19.40;;;;;;;10.15;51.91;102051.54;130491;1267;97986;-81
2022/03/17 11:41:41;;;;;;;24.50;17.70;;;;;;;10.27;52.07;102047.14;130583;1267;98709;-85
2022/03/17 11:44:46;;;;;;;24.20;17.90;;;;;;;10.45;51.16;102056.79;130566;1265;99142;-81
2022/03/17 11:47:55;;;;;;;24.60;17.50;;;;;;;10.52;50.69;102050.20;130639;1267;99246;-82
2022/03/17 11:51:08;;;;;;;25.70;18.50;;;;;;;10.59;50.60;102045.42;130684;1267;98771;-80
2022/03/17 11:54:13;;;;;;;22.90;17.10;;;;;;;10.78;50.41;102045.87;130612;1267;98072;-80
2022/03/17 11:57:19;;;;;;;24.00;17.40;;;;;;;10.86;50.64;102046.77;130005;1268;291893;-79
2022/03/17 12:00:26;;;;;;;32.30;22.50;;;;;;;10.78;50.36;102050.33;130493;1267;97997;-77
2022/03/17 12:03:33;;;;;;;25.70;18.40;;;;;;;10.60;50.16;102042.90;130557;1267;98731;-79
2022/03/17 12:06:41;;;;;;;31.40;21.80;;;;;;;10.47;49.50;102042.18;130677;1267;97985;-79
2022/03/17 12:09:48;;;;;;;28.20;18.90;;;;;;;10.33;49.84;102038.56;130627;1266;97897;-78
2022/03/17 12:12:53;;;;;;;23.40;17.20;;;;;;;10.24;49.04;102037.73;130887;1267;97987;-78
2022/03/17 12:15:59;;;;;;;23.20;17.40;;;;;;;10.22;49.57;102044.11;130485;1267;98659;-79
2022/03/17 12:19:05;;;;;;;24.50;17.00;;;;;;;10.19;49.14;102036.46;130394;1266;98311;-80
2022/03/17 12:22:16;;;;;;;22.90;15.80;;;;;;;10.11;49.00;102032.07;130370;1267;97979;-80
2022/03/17 12:25:23;;;;;;;21.60;16.20;;;;;;;10.05;49.44;102033.73;130572;1267;98047;-79
2022/03/17 12:28:29;;;;;;;22.20;16.30;;;;;;;10.00;48.88;102035.62;130421;1267;98008;-79
2022/03/17 12:31:34;;;;;;;24.80;16.60;;;;;;;9.99;48.33;102033.21;130532;1267;99162;-79
2022/03/17 12:34:41;;;;;;;22.80;16.00;;;;;;;10.05;48.57;102036.38;130516;1267;98035;-78
2022/03/17 12:37:47;;;;;;;23.90;15.80;;;;;;;10.13;48.61;102032.64;130414;1267;98262;-79
2022/03/17 12:40:53;;;;;;;20.70;16.20;;;;;;;10.17;48.72;102032.30;130365;1267;98292;-81
2022/03/17 12:44:00;;;;;;;24.30;16.80;;;;;;;10.26;48.87;102027.29;130400;1267;98023;-83
2022/03/17 12:47:07;;;;;;;23.40;16.30;;;;;;;10.31;48.46;102030.50;130541;1267;98612;-85
2022/03/17 12:50:14;;;;;;;21.50;16.10;;;;;;;10.31;47.93;102025.71;130473;1267;99166;-76
2022/03/17 12:53:20;;;;;;;22.00;16.90;;;;;;;10.35;48.37;102025.09;130559;1267;98422;-77
2022/03/17 12:56:26;;;;;;;23.40;15.50;;;;;;;10.38;47.79;102024.51;130453;1266;97981;-76
2022/03/17 12:59:31;;;;;;;23.10;16.90;;;;;;;10.35;47.78;102024.71;130459;1267;98463;-76
2022/03/17 13:02:36;;;;;;;23.00;16.70;;;;;;;10.27;47.35;102024.55;130456;1267;99221;-75
2022/03/17 13:09:14;;;;;;;24.40;16.90;;;;;;;10.12;47.56;102016.16;130504;1267;99133;-77
2022/03/17 13:15:45;;;;;;;28.60;18.90;;;;;;;10.03;46.59;102019.48;130386;1266;98059;-75
2022/03/17 13:18:54;;;;;;;23.40;16.50;;;;;;;10.00;47.20;102026.77;130389;1267;97978;-76
2022/03/17 13:22:07;;;;;;;23.70;16.90;;;;;;;9.97;47.34;102023.58;130455;1267;98377;-75
2022/03/17 13:25:15;;;;;;;22.60;16.40;;;;;;;9.95;47.35;102020.86;130532;1266;98058;-78
2022/03/17 13:28:22;;;;;;;26.20;17.90;;;;;;;9.94;46.98;102019.15;130440;1267;98643;-76
2022/03/17 13:31:36;;;;;;;34.00;21.60;;;;;;;9.89;46.52;102021.65;130504;1267;98641;-74
2022/03/17 13:34:42;;;;;;;35.50;21.30;;;;;;;9.85;46.66;102016.98;130516;1266;98682;-75
2022/03/17 13:37:49;;;;;;;32.60;22.00;;;;;;;9.83;46.72;102017.44;130608;1266;98062;-78
2022/03/17 13:40:57;;;;;;;30.00;19.10;;;;;;;9.84;46.22;102015.23;130393;1268;98193;-78
2022/03/17 13:44:05;;;;;;;24.60;18.40;;;;;;;9.81;46.18;102016.90;130336;1269;98062;-76
2022/03/17 13:47:18;;;;;;;47.90;33.50;;;;;;;9.77;46.51;102018.70;130244;1269;99168;-77
2022/03/17 13:50:25;;;;;;;24.20;17.70;;;;;;;9.76;46.08;102022.17;130349;1268;97981;-77
2022/03/17 13:53:32;;;;;;;36.10;23.40;;;;;;;9.72;45.73;102016.92;130425;1267;97962;-77
2022/03/17 13:56:38;;;;;;;29.70;20.40;;;;;;;9.71;45.99;102016.14;130506;1267;99038;-76
2022/03/17 13:59:44;;;;;;;96.50;43.80;;;;;;;9.70;46.08;102014.59;130365;1267;99150;-81
2022/03/17 14:03:13;;;;;;;34.50;20.70;;;;;;;9.67;45.90;102014.98;130480;1267;98083;-77
2022/03/17 14:06:19;;;;;;;28.80;18.50;;;;;;;9.63;46.18;102015.59;130212;1268;98678;-77
2022/03/17 14:09:25;;;;;;;24.80;16.30;;;;;;;9.61;45.87;102008.08;130515;1268;121354;-77
2022/03/17 14:12:30;;;;;;;21.60;16.20;;;;;;;9.61;45.84;102011.83;130298;1268;98079;-77
2022/03/17 14:15:36;;;;;;;33.40;19.80;;;;;;;9.60;45.86;102011.02;130335;1268;99181;-75
2022/03/17 14:18:43;;;;;;;29.80;19.10;;;;;;;9.58;45.44;102011.48;130449;1268;97992;-76
2022/03/17 14:25:11;;;;;;;26.00;17.40;;;;;;;9.53;45.98;102006.33;130313;1268;98748;-75
2022/03/17 14:28:17;;;;;;;27.10;18.40;;;;;;;9.54;45.47;102009.80;130296;1268;121156;-74